.
WxDataArchive / Data Records for 2010-04-07
2010-04-06 April 2010 2010-04-08

Data Records for Wednesday, 07 April 2010

Time	Temp	Chill	HIndex	Humid	Dewpt	 Wind 	HiWind	WindDir	Rain 	Barom 
-----	----	-----	------	-----	-----	------	------	-------	-----	----- 
00:00	71.3	71.3	71.3	39	45.1	2	6	248	0.00	29.603 
00:05	71.1	71.1	71.1	39	44.9	2	7	248	0.00	29.603 
00:10	70.9	70.9	70.9	40	45.4	2	7	248	0.00	29.603 
00:15	70.8	70.8	70.8	40	45.3	2	6	248	0.00	29.602 
00:20	70.6	70.6	70.6	41	45.7	1	5	248	0.00	29.602 
00:25	70.4	70.4	70.4	41	45.6	2	5	248	0.00	29.602 
00:30	70.4	70.4	70.4	41	45.6	1	5	225	0.00	29.598 
00:35	70.3	70.3	70.3	41	45.5	1	6	248	0.00	29.598 
00:40	70.1	70.1	70.1	42	45.9	1	3	248	0.00	29.598 
00:45	70.1	70.1	70.1	42	45.9	2	6	248	0.00	29.598 
00:50	70.3	70.3	70.3	41	45.5	2	11	248	0.00	29.598 
00:55	70.3	70.3	70.3	42	46.1	2	6	248	0.00	29.598 
01:00	70.3	70.3	70.3	42	46.1	2	6	248	0.00	29.594 
01:05	70.3	70.3	70.3	42	46.1	2	10	270	0.00	29.594 
01:10	70.4	70.4	70.4	42	46.2	3	10	248	0.00	29.594 
01:15	70.4	70.4	70.4	42	46.2	2	9	270	0.00	29.592 
01:20	70.8	70.8	70.8	42	46.6	4	15	248	0.00	29.592 
01:25	70.8	70.8	70.8	43	47.2	3	7	248	0.00	29.592 
01:30	70.9	70.9	70.9	43	47.3	4	7	248	0.00	29.598 
01:35	71.1	71.1	71.1	43	47.5	3	10	248	0.00	29.598 
01:40	71.3	71.3	71.3	43	47.6	3	11	248	0.00	29.598 
01:45	71.3	71.3	71.3	43	47.6	3	10	248	0.00	29.594 
01:50	71.5	71.5	71.5	43	47.8	5	13	248	0.00	29.594 
01:55	71.6	71.6	71.6	44	48.5	5	14	248	0.00	29.594 
02:00	71.8	71.8	71.8	43	48.1	7	16	248	0.00	29.593 
02:05	72.0	72.0	72.0	44	48.9	5	12	248	0.00	29.593 
02:10	71.8	71.8	71.8	44	48.7	4	13	248	0.00	29.593 
02:15	71.6	71.6	71.6	45	49.1	4	11	248	0.00	29.596 
02:20	71.5	71.5	71.5	45	49.0	3	11	248	0.00	29.596 
02:25	71.5	71.5	71.5	45	49.0	4	11	248	0.00	29.596 
02:30	71.5	71.5	71.5	46	49.6	5	13	248	0.00	29.598 
02:35	71.5	71.5	71.5	46	49.6	4	10	248	0.00	29.598 
02:40	71.3	71.3	71.3	46	49.4	5	13	248	0.00	29.598 
02:45	71.3	71.3	71.3	46	49.4	5	11	248	0.00	29.597 
02:50	71.1	71.1	71.1	47	49.8	3	9	248	0.00	29.597 
02:55	71.1	71.1	71.1	47	49.8	4	10	225	0.00	29.597 
03:00	70.9	70.9	70.9	47	49.7	4	11	248	0.00	29.592 
03:05	71.1	71.1	71.1	48	50.4	4	11	248	0.00	29.592 
03:10	70.9	70.9	70.9	48	50.2	3	9	248	0.00	29.592 
03:15	70.9	70.9	70.9	48	50.2	4	10	248	0.00	29.593 
03:20	71.1	71.1	71.1	48	50.4	5	16	248	0.00	29.593 
03:25	71.3	71.3	71.3	48	50.6	4	11	248	0.00	29.593 
03:30	71.3	71.3	71.3	49	51.1	4	10	248	0.00	29.588 
03:35	71.3	71.3	71.3	49	51.1	4	11	248	0.00	29.588 
03:40	71.3	71.3	71.3	49	51.1	4	12	248	0.00	29.588 
03:45	71.3	71.3	71.3	49	51.1	4	10	248	0.00	29.588 
03:50	71.3	71.3	71.3	49	51.1	5	12	248	0.00	29.588 
03:55	71.3	71.3	71.3	50	51.7	4	10	248	0.00	29.588 
04:00	71.3	71.3	71.3	50	51.7	3	8	248	0.00	29.587 
04:05	71.1	71.1	71.1	50	51.5	4	15	248	0.00	29.587 
04:10	71.1	71.1	71.1	50	51.5	3	10	248	0.00	29.587 
04:15	71.1	71.1	71.1	50	51.5	4	10	248	0.00	29.597 
04:20	70.9	70.9	70.9	51	51.9	3	10	248	0.00	29.597 
04:25	70.9	70.9	70.9	51	51.9	3	10	270	0.00	29.597 
04:30	70.9	70.9	70.9	51	51.9	5	12	248	0.00	29.598 
04:35	70.9	70.9	70.9	52	52.4	3	6	248	0.00	29.598 
04:40	70.8	70.8	70.8	52	52.3	3	6	248	0.00	29.598 
04:45	70.8	70.8	70.8	53	52.8	2	5	248	0.00	29.602 
04:50	70.6	70.6	70.6	53	52.6	1	4	292	0.00	29.602 
04:55	70.4	70.4	70.4	53	52.4	2	5	248	0.00	29.602 
05:00	70.4	70.4	70.4	54	52.9	2	6	248	0.00	29.597 
05:05	70.3	70.3	70.3	54	52.9	1	5	270	0.00	29.597 
05:10	70.1	70.1	70.1	54	52.7	2	5	248	0.00	29.597 
05:15	70.1	70.1	70.1	54	52.7	2	5	248	0.00	29.594 
05:20	69.8	69.8	69.8	55	52.9	2	6	248	0.00	29.594 
05:25	69.8	69.8	69.8	55	52.9	2	5	248	0.00	29.594 
05:30	69.6	69.6	69.6	55	52.7	1	4	225	0.00	29.600 
05:35	69.4	69.4	69.4	56	53.0	1	5	248	0.00	29.600 
05:40	69.3	69.3	69.3	56	52.9	2	5	248	0.00	29.600 
05:45	69.3	69.3	69.3	56	52.9	1	5	248	0.00	29.604 
05:50	69.3	69.3	69.3	56	52.9	1	5	225	0.00	29.604 
05:55	69.3	69.3	69.3	56	52.9	2	5	248	0.00	29.604 
06:00	69.3	69.3	69.3	56	52.9	1	4	225	0.00	29.605 
06:05	69.3	69.3	69.3	56	52.9	2	5	248	0.00	29.605 
06:10	69.3	69.3	69.3	56	52.9	2	5	248	0.00	29.605 
06:15	69.3	69.3	69.3	56	52.9	1	4	248	0.00	29.606 
06:20	69.3	69.3	69.3	56	52.9	2	6	248	0.00	29.606 
06:25	69.3	69.3	69.3	56	52.9	2	10	248	0.00	29.606 
06:30	69.3	69.3	69.3	56	52.9	2	6	270	0.00	29.608 
06:35	69.3	69.3	69.3	56	52.9	1	3	225	0.00	29.608 
06:40	69.1	69.1	69.1	56	52.7	2	5	248	0.00	29.608 
06:45	69.1	69.1	69.1	56	52.7	3	7	248	0.00	29.604 
06:50	69.1	69.1	69.1	56	52.7	2	6	225	0.00	29.604 
06:55	69.3	69.3	69.3	56	52.9	2	6	248	0.00	29.604 
07:00	69.3	69.3	69.3	56	52.9	2	6	248	0.00	29.608 
07:05	69.1	69.1	69.1	57	53.2	3	7	248	0.00	29.608 
07:10	69.1	69.1	69.1	57	53.2	2	7	225	0.00	29.608 
07:15	69.1	69.1	69.1	57	53.2	2	10	248	0.00	29.615 
07:20	69.3	69.3	69.3	57	53.4	2	5	248	0.00	29.615 
07:25	69.3	69.3	69.3	57	53.4	2	6	248	0.00	29.615 
07:30	69.3	69.3	69.3	57	53.4	2	4	248	0.00	29.618 
07:35	69.3	69.3	69.3	57	53.4	2	7	248	0.00	29.618 
07:40	69.6	69.6	69.6	56	53.2	4	7	248	0.00	29.618 
07:45	69.6	69.6	69.6	56	53.2	3	10	225	0.00	29.629 
07:50	69.6	69.6	69.6	56	53.2	3	11	248	0.00	29.629 
07:55	69.8	69.8	69.8	56	53.4	5	11	270	0.00	29.629 
08:00	69.9	69.9	69.9	56	53.5	4	10	248	0.00	29.650 
08:05	69.9	69.9	69.9	56	53.5	3	11	248	0.00	29.650 
08:10	69.8	69.8	69.8	56	53.4	3	9	270	0.00	29.650 
08:15	69.8	69.8	69.8	56	53.4	4	9	248	0.00	29.641 
08:20	69.8	69.8	69.8	57	53.9	4	14	248	0.00	29.641 
08:25	69.6	69.6	69.6	58	54.2	3	11	270	0.00	29.641 
08:30	69.4	69.4	69.4	58	54.0	3	8	248	0.00	29.636 
08:35	69.3	69.3	69.3	58	53.9	2	5	248	0.00	29.636 
08:40	69.3	69.3	69.3	58	53.9	3	6	248	0.00	29.636 
08:45	69.4	69.4	69.4	58	54.0	3	7	248	0.00	29.637 
08:50	69.8	69.8	69.8	58	54.3	3	7	248	0.00	29.637 
08:55	70.1	70.1	70.1	58	54.6	1	4	248	0.00	29.637 
09:00	70.3	70.3	70.3	58	54.8	2	5	248	0.00	29.623 
09:05	70.3	70.3	70.3	57	54.3	3	8	270	0.00	29.623 
09:10	70.4	70.4	70.4	57	54.4	3	10	248	0.00	29.623 
09:15	70.6	70.6	70.6	57	54.6	2	5	248	0.00	29.633 
09:20	70.8	70.8	70.8	57	54.8	3	7	248	0.00	29.633 
09:25	70.8	70.8	70.8	57	54.8	3	7	248	0.00	29.633 
09:30	70.6	70.6	70.6	57	54.6	2	7	248	0.00	29.658 
09:35	70.3	70.3	70.3	58	54.8	3	7	248	0.00	29.658 
09:40	70.1	70.1	70.1	58	54.6	3	7	248	0.00	29.658 
09:45	69.9	69.9	69.9	58	54.4	3	9	248	0.00	29.671 
09:50	69.8	69.8	69.8	58	54.3	2	5	248	0.00	29.671 
09:55	69.8	69.8	69.8	58	54.3	3	5	248	0.00	29.671 
10:00	69.6	69.6	69.6	59	54.6	1	5	248	0.00	29.676 
10:05	69.4	69.4	69.4	59	54.4	1	6	248	0.00	29.676 
10:10	69.3	69.3	69.3	59	54.3	3	8	248	0.00	29.676 
10:15	69.1	69.1	69.1	60	54.6	3	6	248	0.00	29.685 
10:20	68.9	68.9	68.9	60	54.4	3	6	270	0.00	29.685 
10:25	68.8	68.8	68.8	61	54.8	3	7	248	0.00	29.685 
10:30	67.6	67.6	67.6	65	55.4	5	11	270	0.00	29.701 
10:35	65.5	65.5	65.5	69	55.1	4	7	270	0.00	29.701 
10:40	64.0	64.0	64.0	74	55.5	3	6	315	0.00	29.701 
10:45	63.1	63.1	63.1	78	56.1	1	3	292	0.00	29.723 
10:50	62.3	62.3	62.3	81	56.4	2	5	270	0.00	29.723 
10:55	61.6	61.6	61.6	82	56.0	2	6	270	0.00	29.723 
11:00	61.3	61.3	61.3	84	56.4	0	1	0	0.00	29.728 
11:05	61.0	61.0	61.0	85	56.5	1	3	315	0.00	29.728 
11:10	60.9	60.9	60.9	85	56.4	0	2	292	0.00	29.728 
11:15	60.9	60.9	60.9	86	56.7	0	1	315	0.00	29.731 
11:20	60.9	60.9	60.9	86	56.7	0	1	315	0.00	29.731 
11:25	61.0	61.0	61.0	86	56.8	0	1	315	0.00	29.731 
11:30	61.2	61.2	61.2	86	57.0	0	1	315	0.00	29.725 
11:35	61.2	61.2	61.2	86	57.0	0	0	---	0.00	29.725 
11:40	61.3	61.3	61.3	85	56.7	0	0	---	0.00	29.725 
11:45	61.5	61.5	61.5	85	56.9	0	0	---	0.00	29.718 
11:50	61.6	61.6	61.6	85	57.0	0	0	---	0.00	29.718 
11:55	61.8	61.8	61.8	84	56.9	0	0	---	0.00	29.718 
12:00	62.1	62.1	62.1	83	56.9	0	0	---	0.00	29.723 
12:05	62.3	62.3	62.3	82	56.7	0	1	315	0.00	29.723 
12:10	62.4	62.4	62.4	81	56.5	0	0	---	0.00	29.723 
12:15	62.6	62.6	62.6	81	56.7	0	2	315	0.00	29.718 
12:20	62.7	62.7	62.7	80	56.4	0	1	315	0.00	29.718 
12:25	62.9	62.9	62.9	80	56.6	0	1	315	0.00	29.718 
12:30	63.1	63.1	63.1	80	56.8	0	3	112	0.00	29.710 
12:35	63.2	63.2	63.2	80	56.9	1	3	112	0.00	29.710 
12:40	63.4	63.4	63.4	80	57.1	1	3	112	0.00	29.710 
12:45	63.5	63.5	63.5	78	56.5	1	3	90	0.00	29.704 
12:50	64.2	64.2	64.2	77	56.8	1	3	112	0.00	29.704 
12:55	64.7	64.7	64.7	75	56.6	1	3	90	0.00	29.704 
13:00	65.2	65.2	65.2	73	56.3	1	4	158	0.00	29.697 
13:05	65.5	65.5	65.5	72	56.2	1	4	90	0.00	29.697 
13:10	65.8	65.8	65.8	71	56.1	1	2	90	0.00	29.697 
13:15	66.0	66.0	66.0	69	55.5	1	3	68	0.00	29.688 
13:20	66.0	66.0	66.0	69	55.5	1	3	68	0.00	29.688 
13:25	65.8	65.8	65.8	69	55.3	0	2	90	0.00	29.688 
13:30	65.6	65.6	65.6	69	55.1	0	2	90	0.00	29.692 
13:35	65.6	65.6	65.6	69	55.1	0	1	90	0.00	29.692 
13:40	65.5	65.5	65.5	68	54.7	0	2	90	0.00	29.692 
13:45	65.3	65.3	65.3	69	54.9	0	3	90	0.00	29.711 
13:50	65.3	65.3	65.3	68	54.5	0	1	90	0.00	29.711 
13:55	65.2	65.2	65.2	70	55.2	0	1	90	0.00	29.711 
14:00	65.0	65.0	65.0	72	55.7	0	1	90	0.00	29.706 
14:05	64.8	64.8	64.8	73	55.9	0	2	90	0.00	29.706 
14:10	64.3	64.3	64.3	74	55.8	1	2	90	0.00	29.706 
14:15	64.0	64.0	64.0	76	56.3	1	3	90	0.01	29.709 
14:20	63.4	63.4	63.4	76	55.7	1	5	112	0.00	29.709 
14:25	63.1	63.1	63.1	78	56.1	0	2	112	0.01	29.709 
14:30	62.7	62.7	62.7	80	56.4	0	2	112	0.00	29.696 
14:35	62.4	62.4	62.4	81	56.5	0	1	112	0.01	29.696 
14:40	62.1	62.1	62.1	83	56.9	0	1	112	0.01	29.696 
14:45	61.6	61.6	61.6	85	57.0	0	1	112	0.01	29.718 
14:50	61.3	61.3	61.3	86	57.1	0	2	112	0.01	29.718 
14:55	61.2	61.2	61.2	88	57.6	0	1	112	0.01	29.718 
15:00	60.9	60.9	60.9	88	57.3	0	1	112	0.00	29.711 
15:05	60.7	60.7	60.7	89	57.4	0	3	112	0.02	29.711 
15:10	60.5	60.5	60.5	90	57.5	1	4	112	0.03	29.711 
15:15	60.4	60.4	60.4	91	57.8	0	3	112	0.01	29.696 
15:20	60.2	60.2	60.2	92	57.9	1	3	112	0.01	29.696 
15:25	60.1	60.1	60.1	92	57.8	0	2	135	0.01	29.696 
15:30	60.1	60.1	60.1	92	57.8	0	2	135	0.01	29.691 
15:35	60.1	60.1	60.1	93	58.1	0	1	135	0.01	29.691 
15:40	60.2	60.2	60.2	93	58.2	0	1	135	0.00	29.691 
15:45	60.5	60.5	60.5	94	58.8	0	2	135	0.00	29.675 
15:50	60.9	60.9	60.9	94	59.2	1	3	68	0.00	29.675 
15:55	60.9	60.9	60.9	94	59.2	0	2	68	0.00	29.675 
16:00	60.9	60.9	60.9	94	59.2	0	1	135	0.00	29.664 
16:05	60.9	60.9	60.9	94	59.2	0	2	135	0.00	29.664 
16:10	60.7	60.7	60.7	94	59.0	0	1	135	0.00	29.664 
16:15	60.7	60.7	60.7	94	59.0	0	1	135	0.00	29.654 
16:20	60.7	60.7	60.7	94	59.0	0	0	---	0.00	29.654 
16:25	60.7	60.7	60.7	95	59.3	0	0	---	0.00	29.654 
16:30	60.7	60.7	60.7	95	59.3	0	1	135	0.00	29.647 
16:35	60.7	60.7	60.7	95	59.3	0	1	135	0.00	29.647 
16:40	60.9	60.9	60.9	95	59.5	0	1	135	0.00	29.647 
16:45	60.9	60.9	60.9	95	59.5	0	1	135	0.00	29.634 
16:50	60.7	60.7	60.7	95	59.3	0	1	135	0.00	29.634 
16:55	60.9	60.9	60.9	95	59.5	0	1	135	0.00	29.634 
17:00	60.7	60.7	60.7	95	59.3	0	1	135	0.00	29.634 
17:05	60.7	60.7	60.7	95	59.3	0	0	---	0.00	29.634 
17:10	60.7	60.7	60.7	95	59.3	0	1	135	0.00	29.634 
17:15	60.5	60.5	60.5	95	59.1	0	1	135	0.01	29.649 
17:20	60.5	60.5	60.5	95	59.1	0	1	135	0.03	29.649 
17:25	60.5	60.5	60.5	95	59.1	0	1	135	0.02	29.649 
17:30	60.5	60.5	60.5	95	59.1	0	0	---	0.03	29.647 
17:35	60.5	60.5	60.5	95	59.1	0	2	135	0.02	29.647 
17:40	60.5	60.5	60.5	95	59.1	1	4	135	0.03	29.647 
17:45	60.5	60.5	60.5	95	59.1	2	6	112	0.05	29.632 
17:50	60.7	60.7	60.7	95	59.3	3	9	90	0.09	29.632 
17:55	60.7	60.7	60.7	95	59.3	3	6	90	0.07	29.632 
18:00	60.7	60.7	60.7	95	59.3	1	3	135	0.02	29.628 
18:05	60.7	60.7	60.7	96	59.6	1	4	270	0.01	29.628 
18:10	60.9	60.9	60.9	96	59.7	1	4	270	0.02	29.628 
18:15	60.7	60.7	60.7	95	59.3	1	4	248	0.06	29.632 
18:20	60.4	60.4	60.4	95	59.0	0	4	248	0.03	29.632 
18:25	60.2	60.2	60.2	95	58.8	0	2	248	0.01	29.632 
18:30	60.1	60.1	60.1	95	58.7	0	1	248	0.00	29.631 
18:35	60.1	60.1	60.1	95	58.7	0	1	248	0.00	29.631 
18:40	60.1	60.1	60.1	95	58.7	0	1	248	0.00	29.631 
18:45	60.2	60.2	60.2	95	58.8	0	2	248	0.00	29.621 
18:50	60.4	60.4	60.4	96	59.3	0	1	248	0.00	29.621 
18:55	60.5	60.5	60.5	96	59.4	0	1	248	0.00	29.621 
19:00	60.5	60.5	60.5	96	59.4	0	0	---	0.00	29.613 
19:05	60.7	60.7	60.7	96	59.6	0	0	---	0.00	29.613 
19:10	60.9	60.9	60.9	96	59.7	0	1	248	0.00	29.613 
19:15	60.9	60.9	60.9	96	59.7	0	0	---	0.00	29.613 
19:20	60.9	60.9	60.9	96	59.7	0	0	---	0.00	29.613 
19:25	60.9	60.9	60.9	96	59.7	0	0	---	0.00	29.613 
19:30	60.9	60.9	60.9	96	59.7	0	0	---	0.00	29.613 
19:35	61.0	61.0	61.0	96	59.8	1	4	90	0.00	29.613 
19:40	61.0	61.0	61.0	96	59.8	0	3	90	0.01	29.613 
19:45	61.0	61.0	61.0	96	59.8	0	3	90	0.01	29.613 
19:50	61.2	61.2	61.2	96	60.0	2	6	270	0.06	29.613 
19:55	58.7	58.7	58.7	92	56.4	8	23	270	0.29	29.613 
20:00	56.3	56.3	56.3	93	54.3	4	10	270	0.07	29.662 
20:05	56.0	56.0	56.0	94	54.3	2	7	270	0.03	29.662 
20:10	56.2	56.2	56.2	94	54.5	1	5	270	0.01	29.662 
20:15	56.3	56.3	56.3	94	54.6	1	3	225	0.00	29.610 
20:20	56.5	56.5	56.5	94	54.8	1	3	90	0.00	29.610 
20:25	56.6	56.6	56.6	94	54.9	1	4	90	0.00	29.610 
20:30	56.6	56.6	56.6	94	54.9	0	1	90	0.00	29.605 
20:35	56.6	56.6	56.6	94	54.9	1	3	22	0.00	29.605 
20:40	56.6	56.6	56.6	94	54.9	1	3	112	0.00	29.605 
20:45	56.7	56.7	56.7	94	55.0	1	4	112	0.00	29.597 
20:50	56.7	56.7	56.7	94	55.0	0	2	112	0.00	29.597 
20:55	56.7	56.7	56.7	94	55.0	0	1	112	0.00	29.597 
21:00	56.7	56.7	56.7	94	55.0	0	1	112	0.00	29.590 
21:05	56.9	56.9	56.9	94	55.2	0	2	112	0.00	29.590 
21:10	56.9	56.9	56.9	94	55.2	0	2	112	0.00	29.590 
21:15	56.9	56.9	56.9	94	55.2	0	2	112	0.00	29.580 
21:20	56.9	56.9	56.9	94	55.2	0	1	112	0.00	29.580 
21:25	56.9	56.9	56.9	94	55.2	0	1	112	0.00	29.580 
21:30	57.0	57.0	57.0	95	55.6	1	3	112	0.00	29.593 
21:35	57.3	57.3	57.3	95	55.9	1	4	112	0.00	29.593 
21:40	57.5	57.5	57.5	95	56.1	0	3	112	0.00	29.593 
21:45	57.6	57.6	57.6	95	56.2	0	1	112	0.00	29.583 
21:50	57.5	57.5	57.5	94	55.8	0	2	112	0.00	29.583 
21:55	57.6	57.6	57.6	95	56.2	0	2	135	0.00	29.583 
22:00	58.0	58.0	58.0	95	56.6	0	1	135	0.00	29.599 
22:05	58.0	58.0	58.0	95	56.6	0	0	---	0.00	29.599 
22:10	58.1	58.1	58.1	95	56.7	0	1	135	0.00	29.599 
22:15	58.4	58.4	58.4	95	57.0	0	0	---	0.00	29.608 
22:20	58.6	58.6	58.6	95	57.2	0	0	---	0.00	29.608 
22:25	59.0	59.0	59.0	95	57.6	0	1	135	0.00	29.608 
22:30	59.5	59.5	59.5	95	58.1	0	2	135	0.00	29.611 
22:35	59.9	59.9	59.9	95	58.5	1	3	135	0.00	29.611 
22:40	60.1	60.1	60.1	95	58.7	1	3	135	0.01	29.611 
22:45	60.4	60.4	60.4	95	59.0	1	4	135	0.01	29.606 
22:50	60.7	60.7	60.7	95	59.3	1	5	112	0.01	29.606 
22:55	60.9	60.9	60.9	95	59.5	2	7	112	0.02	29.606 
23:00	61.0	61.0	61.0	95	59.6	1	5	45	0.01	29.590 
23:05	61.2	61.2	61.2	94	59.5	1	6	112	0.01	29.590 
23:10	61.2	61.2	61.2	94	59.5	1	3	22	0.01	29.590 
23:15	61.2	61.2	61.2	94	59.5	2	5	90	0.01	29.583 
23:20	61.0	61.0	61.0	94	59.3	2	5	90	0.00	29.583 
23:25	61.0	61.0	61.0	94	59.3	2	7	112	0.01	29.583 
23:30	60.9	60.9	60.9	93	58.9	2	4	112	0.00	29.577 
23:35	60.9	60.9	60.9	93	58.9	2	7	112	0.00	29.577 
23:40	60.9	60.9	60.9	92	58.6	3	9	68	0.00	29.577 
23:45	60.5	60.5	60.5	92	58.2	2	6	90	0.00	29.582 
23:50	60.4	60.4	60.4	92	58.1	1	4	248	0.00	29.582 
23:55	60.2	60.2	60.2	92	57.9	1	6	248	0.00	29.582 

CoCoRaHS
IN-AL-39
A2 Web Hosting
Creative Commons License
GoDaddy
search engine by freefind advanced

loaded 2018-11-17 22:31:25 • last modified 2010-11-18 10:43:29
Privacy PolicyDisclaimer
• wx.awcolley.com is powered by PmWiki v.2002016 •
• all content (unless otherwise noted) © 2018 A W Colley